Time;durP1;ratioP1;P1;durP2;ratioP2;P2;SDS_P1;SDS_P2;PMS_P1;PMS_P2;Temp;Humidity;BMP_temperature;BMP_pressure;BME280_temperature;BME280_humidity;BME280_pressure;Samples;Min_cycle;Max_cycle;Signal;HPM_P1;HPM_P2
2021/03/15 00:01:26;;;;;;;138.03;78.07;;;;;;;5.96;71.34;93411.06;1797416;79;21069;-62
2021/03/15 00:03:54;;;;;;;140.12;81.37;;;;;;;5.91;71.55;93412.25;1797369;79;21191;-61
2021/03/15 00:06:22;;;;;;;144.32;83.40;;;;;;;5.83;71.91;93409.66;1804017;79;21057;-62
2021/03/15 00:08:51;;;;;;;167.37;94.25;;;;;;;5.81;72.14;93416.17;1807909;79;21128;-62
2021/03/15 00:11:19;;;;;;;157.27;92.50;;;;;;;5.76;72.31;93415.37;1807833;79;21149;-61
2021/03/15 00:13:49;;;;;;;131.15;73.92;;;;;;;5.76;72.68;93416.11;1807761;78;21153;-62
2021/03/15 00:16:18;;;;;;;56.35;33.80;;;;;;;5.78;72.83;93417.81;1807822;79;21089;-62
2021/03/15 00:18:46;;;;;;;33.08;20.12;;;;;;;5.72;73.31;93405.17;1807778;79;21077;-61
2021/03/15 00:21:14;;;;;;;22.37;16.17;;;;;;;5.72;73.39;93409.27;1807836;79;21078;-62
2021/03/15 00:23:42;;;;;;;23.62;15.32;;;;;;;5.76;73.63;93418.84;1807821;79;21109;-61
2021/03/15 00:26:10;;;;;;;20.17;12.70;;;;;;;5.92;73.50;93411.05;1807838;79;21109;-61
2021/03/15 00:28:39;;;;;;;60.98;34.40;;;;;;;6.01;73.20;93413.82;1807781;79;21133;-62
2021/03/15 00:31:09;;;;;;;71.37;41.50;;;;;;;6.05;72.88;93413.06;1779009;79;21152;-62
2021/03/15 00:33:37;;;;;;;87.27;51.88;;;;;;;6.12;72.87;93420.38;1807839;78;21065;-61
2021/03/15 00:36:08;;;;;;;88.00;58.05;;;;;;;6.15;72.52;93428.28;1805254;79;21077;-61
2021/03/15 00:38:36;;;;;;;85.35;52.70;;;;;;;6.09;72.63;93425.96;1807830;79;21037;-62
2021/03/15 00:41:04;;;;;;;80.05;50.35;;;;;;;5.96;72.82;93421.23;1807846;78;21343;-61
2021/03/15 00:43:32;;;;;;;61.13;41.25;;;;;;;5.88;73.35;93428.16;1807770;79;21068;-62
2021/03/15 00:46:00;;;;;;;65.92;44.98;;;;;;;5.81;73.39;93432.55;1807825;79;21129;-62
2021/03/15 00:48:29;;;;;;;40.08;25.65;;;;;;;5.64;73.72;93415.59;1807773;78;21125;-63
2021/03/15 00:50:57;;;;;;;43.87;29.85;;;;;;;5.63;73.99;93422.87;1807896;79;21054;-62
2021/03/15 00:53:25;;;;;;;53.33;33.23;;;;;;;5.71;74.03;93425.48;1807811;79;21197;-62
2021/03/15 00:55:53;;;;;;;71.17;40.88;;;;;;;5.79;74.06;93434.96;1807847;79;21506;-62
2021/03/15 00:58:21;;;;;;;56.23;33.48;;;;;;;5.84;74.14;93433.01;1807778;79;21117;-61
2021/03/15 01:00:49;;;;;;;58.28;34.08;;;;;;;5.92;74.23;93436.97;1807814;79;21133;-61
2021/03/15 01:03:22;;;;;;;68.30;40.20;;;;;;;6.04;74.01;93431.43;1805013;79;21109;-61
2021/03/15 01:05:56;;;;;;;71.17;40.83;;;;;;;6.14;73.96;93435.70;1807195;79;21191;-61
2021/03/15 01:08:39;;;;;;;53.33;33.08;;;;;;;6.24;73.77;93436.48;1807770;79;21157;-62
2021/03/15 01:11:10;;;;;;;45.63;26.75;;;;;;;6.33;73.61;93429.69;1807104;79;21132;-62
2021/03/15 01:13:38;;;;;;;42.35;30.12;;;;;;;6.41;73.59;93426.22;1807788;79;21168;-61
2021/03/15 01:16:06;;;;;;;38.30;26.10;;;;;;;6.40;73.14;93429.39;1807847;79;21058;-62
2021/03/15 01:18:35;;;;;;;24.15;16.12;;;;;;;6.33;73.43;93431.06;1807764;78;21124;-61
2021/03/15 01:21:04;;;;;;;8.43;7.25;;;;;;;6.37;72.89;93430.30;1807784;79;21061;-62
2021/03/15 01:23:32;;;;;;;4.30;4.00;;;;;;;6.33;71.67;93425.59;1807849;79;21069;-62
2021/03/15 01:26:00;;;;;;;4.45;4.15;;;;;;;6.26;71.23;93431.33;1807813;79;21152;-63
2021/03/15 01:28:28;;;;;;;5.15;4.65;;;;;;;6.22;71.15;93429.34;1807799;79;21160;-62
2021/03/15 01:30:56;;;;;;;25.02;18.02;;;;;;;6.24;70.93;93424.19;1807739;78;21346;-62
2021/03/15 01:33:24;;;;;;;35.52;24.50;;;;;;;6.18;71.30;93430.10;1807732;79;21069;-62
2021/03/15 01:35:52;;;;;;;35.75;22.22;;;;;;;6.11;71.88;93427.64;1807787;79;21156;-61
2021/03/15 01:38:20;;;;;;;11.12;8.10;;;;;;;6.08;72.37;93418.39;1807766;79;21121;-61
2021/03/15 01:40:48;;;;;;;19.77;14.68;;;;;;;5.98;71.72;93420.18;1807783;79;21148;-61
2021/03/15 01:43:15;;;;;;;25.05;18.30;;;;;;;5.91;72.16;93423.94;1807716;79;21238;-60
2021/03/15 01:45:44;;;;;;;29.98;20.97;;;;;;;5.78;72.72;93418.41;1807712;79;21219;-61
2021/03/15 01:48:13;;;;;;;25.37;18.12;;;;;;;5.75;73.43;93424.14;1807830;78;21549;-61
2021/03/15 01:50:44;;;;;;;20.52;15.15;;;;;;;5.80;73.72;93421.48;1807774;79;21112;-61
2021/03/15 01:53:13;;;;;;;20.90;16.02;;;;;;;5.90;73.66;93418.92;1807810;79;21061;-61
2021/03/15 01:55:41;;;;;;;22.37;14.15;;;;;;;5.94;73.40;93420.93;1779095;79;22187;-61
2021/03/15 01:58:08;;;;;;;17.77;13.68;;;;;;;6.02;73.35;93426.25;1807665;79;21630;-61
2021/03/15 02:00:37;;;;;;;17.80;13.15;;;;;;;6.04;73.01;93421.10;1807755;78;21069;-62
2021/03/15 02:03:07;;;;;;;19.98;14.65;;;;;;;6.02;73.35;93419.43;1807786;78;21073;-62
2021/03/15 02:05:37;;;;;;;20.70;15.03;;;;;;;6.07;73.32;93416.88;1807866;79;21455;-61
2021/03/15 02:08:06;;;;;;;24.15;19.17;;;;;;;6.10;72.99;93420.06;1813508;78;21246;-62
2021/03/15 02:10:35;;;;;;;24.87;18.67;;;;;;;6.02;73.04;93422.16;1813383;78;21097;-62
2021/03/15 02:13:32;;;;;;;26.73;19.65;;;;;;;5.92;73.15;93426.05;1813486;78;21057;-61
2021/03/15 02:16:24;;;;;;;22.02;18.10;;;;;;;5.80;73.45;93414.03;1813495;79;21120;-61
2021/03/15 02:19:16;;;;;;;20.57;16.00;;;;;;;5.72;73.38;93416.09;1813753;79;21041;-61
2021/03/15 02:22:15;;;;;;;14.18;11.57;;;;;;;5.55;73.52;93418.88;1813567;79;21197;-61
2021/03/15 02:25:35;;;;;;;13.78;10.30;;;;;;;5.45;73.85;93416.71;1813092;79;21072;-62
2021/03/15 02:28:43;;;;;;;16.87;14.05;;;;;;;5.46;73.77;93422.32;1813497;79;21048;-61
2021/03/15 02:31:36;;;;;;;15.83;13.72;;;;;;;5.36;73.87;93424.08;1813557;78;21129;-60
2021/03/15 02:34:45;;;;;;;15.03;12.73;;;;;;;5.28;74.16;93420.85;1791317;78;21069;-61
2021/03/15 02:37:19;;;;;;;15.60;11.53;;;;;;;5.16;74.13;93429.10;1796629;79;21073;-61
2021/03/15 02:39:50;;;;;;;21.40;14.70;;;;;;;5.07;74.41;93423.61;1813788;79;21490;-62
2021/03/15 02:42:19;;;;;;;20.08;14.73;;;;;;;4.95;74.68;93425.03;1813617;79;21592;-62
2021/03/15 02:44:50;;;;;;;17.95;13.25;;;;;;;4.88;75.16;93421.18;1813590;79;21458;-62
2021/03/15 02:47:23;;;;;;;19.23;14.40;;;;;;;4.87;75.25;93420.44;1813771;79;21160;-62
2021/03/15 02:50:01;;;;;;;18.07;12.37;;;;;;;4.85;75.46;93425.56;1813726;77;21239;-61
2021/03/15 02:52:29;;;;;;;18.32;13.10;;;;;;;4.88;75.45;93424.67;1813591;79;21132;-62
2021/03/15 02:54:59;;;;;;;16.37;12.43;;;;;;;4.83;75.30;93418.41;1786966;79;21068;-62
2021/03/15 02:57:29;;;;;;;17.23;13.32;;;;;;;4.86;75.71;93427.09;1813714;79;21076;-61
2021/03/15 02:59:57;;;;;;;14.38;12.60;;;;;;;4.96;75.47;93421.85;1813671;78;21101;-62
2021/03/15 03:02:26;;;;;;;17.30;12.43;;;;;;;5.00;75.45;93425.20;1813583;79;21185;-61
2021/03/15 03:04:54;;;;;;;15.32;11.78;;;;;;;5.08;75.59;93423.77;1813509;79;21121;-62
2021/03/15 03:07:21;;;;;;;16.32;12.13;;;;;;;5.20;75.16;93424.31;1813438;79;21101;-61
2021/03/15 03:09:50;;;;;;;14.63;11.65;;;;;;;5.20;74.93;93420.22;1813584;79;21164;-62
2021/03/15 03:12:18;;;;;;;18.30;12.85;;;;;;;5.17;74.94;93427.90;1813696;79;21604;-61
2021/03/15 03:14:46;;;;;;;15.40;13.22;;;;;;;5.13;75.16;93421.82;1786810;79;21374;-62
2021/03/15 03:17:15;;;;;;;18.70;14.28;;;;;;;5.15;74.92;93419.41;1813519;79;21110;-61
2021/03/15 03:19:42;;;;;;;29.55;17.30;;;;;;;5.19;75.25;93428.21;1813601;79;21078;-61
2021/03/15 03:22:13;;;;;;;26.52;18.02;;;;;;;5.37;75.23;93428.33;1813606;79;21136;-62
2021/03/15 03:24:40;;;;;;;33.55;22.10;;;;;;;5.50;74.98;93427.66;1787175;79;21549;-62
2021/03/15 03:27:08;;;;;;;29.70;19.90;;;;;;;5.64;74.51;93424.40;1813586;79;21409;-61
2021/03/15 03:29:36;;;;;;;33.45;20.30;;;;;;;5.76;74.33;93434.47;1813488;79;21073;-62
2021/03/15 03:32:05;;;;;;;25.27;17.70;;;;;;;5.83;73.85;93430.13;1786718;79;21140;-62
2021/03/15 03:34:34;;;;;;;24.30;16.65;;;;;;;5.85;73.49;93429.84;1813696;79;21489;-61
2021/03/15 03:37:01;;;;;;;18.00;14.35;;;;;;;5.91;73.41;93428.63;1813619;79;21120;-62
2021/03/15 03:39:29;;;;;;;20.88;13.70;;;;;;;6.03;72.82;93419.59;1813542;79;21445;-62
2021/03/15 03:41:57;;;;;;;20.95;14.58;;;;;;;6.00;72.53;93424.58;1813516;79;21160;-61
2021/03/15 03:44:26;;;;;;;17.15;13.48;;;;;;;5.99;72.25;93429.27;1813532;78;21228;-61
2021/03/15 03:46:53;;;;;;;18.90;14.13;;;;;;;5.97;72.15;93429.58;1813562;79;21049;-62
2021/03/15 03:49:22;;;;;;;23.77;15.70;;;;;;;5.92;72.04;93424.69;1813564;77;21102;-62
2021/03/15 03:52:01;;;;;;;22.98;16.30;;;;;;;5.85;72.00;93423.02;1813550;79;21370;-62
2021/03/15 03:54:32;;;;;;;15.38;12.90;;;;;;;5.79;72.14;93429.50;1813507;79;21124;-60
2021/03/15 03:57:06;;;;;;;17.17;12.82;;;;;;;5.74;71.94;93428.67;1813690;79;21529;-62
2021/03/15 03:59:35;;;;;;;17.73;14.68;;;;;;;5.64;71.90;93423.03;1813582;79;21061;-62
2021/03/15 04:02:04;;;;;;;22.13;15.15;;;;;;;5.66;72.38;93427.44;1813610;79;21049;-62
2021/03/15 04:04:42;;;;;;;18.60;14.87;;;;;;;5.70;71.85;93431.55;1813538;79;21193;-62
2021/03/15 04:07:09;;;;;;;19.10;14.60;;;;;;;5.59;71.79;93426.34;1813309;79;21108;-61
2021/03/15 04:09:37;;;;;;;16.35;12.15;;;;;;;5.47;72.08;93429.91;1786778;79;21090;-62
2021/03/15 04:12:11;;;;;;;18.10;14.45;;;;;;;5.38;72.07;93431.98;1813550;79;21077;-61
2021/03/15 04:14:45;;;;;;;19.75;15.45;;;;;;;5.27;72.21;93426.77;1813575;79;21143;-62
2021/03/15 04:17:17;;;;;;;19.27;14.10;;;;;;;5.19;72.70;93419.29;1813594;79;21236;-61
2021/03/15 04:20:04;;;;;;;16.73;13.60;;;;;;;5.23;72.79;93420.07;1813611;79;21108;-62
2021/03/15 04:22:35;;;;;;;16.85;13.28;;;;;;;5.30;72.58;93420.42;1813588;79;21113;-61
2021/03/15 04:25:04;;;;;;;13.48;11.73;;;;;;;5.39;72.67;93419.87;1813569;79;21517;-62
2021/03/15 04:27:32;;;;;;;15.32;12.50;;;;;;;5.53;72.26;93421.30;1813657;79;21533;-62
2021/03/15 04:29:59;;;;;;;17.95;13.75;;;;;;;5.59;71.74;93415.44;1813503;78;21194;-61
2021/03/15 04:32:28;;;;;;;18.92;14.10;;;;;;;5.64;71.37;93416.96;1813510;79;21223;-61
2021/03/15 04:34:56;;;;;;;19.60;14.53;;;;;;;5.56;71.07;93419.03;1786738;79;21061;-61
2021/03/15 04:37:24;;;;;;;16.35;13.28;;;;;;;5.38;71.05;93414.88;1813523;79;21064;-61
2021/03/15 04:39:51;;;;;;;20.35;15.72;;;;;;;5.17;71.33;93412.91;1813587;79;21085;-61
2021/03/15 04:42:19;;;;;;;24.90;17.45;;;;;;;5.03;72.18;93413.44;1786697;79;21203;-62
2021/03/15 04:44:47;;;;;;;20.52;15.48;;;;;;;5.02;72.19;93401.02;1761264;78;21100;-62
2021/03/15 04:47:15;;;;;;;22.55;17.73;;;;;;;4.96;72.34;93404.14;1786692;79;21081;-62
2021/03/15 04:49:43;;;;;;;33.20;23.30;;;;;;;4.89;72.81;93405.77;1813508;77;21045;-62
2021/03/15 04:52:11;;;;;;;27.27;20.60;;;;;;;4.88;72.78;93412.42;1813536;78;21097;-61
2021/03/15 04:54:39;;;;;;;24.70;19.30;;;;;;;4.75;72.91;93407.62;1813555;79;21374;-62
2021/03/15 04:57:07;;;;;;;30.43;24.40;;;;;;;4.72;73.27;93408.50;1813411;79;21081;-61
2021/03/15 04:59:35;;;;;;;28.07;22.00;;;;;;;4.77;73.57;93414.74;1724290;79;21063;-61
2021/03/15 05:02:04;;;;;;;25.20;21.30;;;;;;;4.94;73.60;93413.98;1786744;79;21057;-62
2021/03/15 05:04:32;;;;;;;27.27;23.40;;;;;;;5.09;73.17;93412.24;1787002;79;21152;-62
2021/03/15 05:07:00;;;;;;;28.55;21.42;;;;;;;5.08;72.51;93418.31;1812243;77;21188;-61
2021/03/15 05:09:30;;;;;;;29.35;22.37;;;;;;;4.98;72.79;93418.08;1803383;79;21140;-62
2021/03/15 05:12:00;;;;;;;33.78;26.55;;;;;;;5.02;73.00;93417.38;1805835;79;21096;-61
2021/03/15 05:14:29;;;;;;;46.42;34.73;;;;;;;5.08;72.66;93409.36;1807802;79;21156;-61
2021/03/15 05:16:57;;;;;;;31.87;22.73;;;;;;;5.04;72.39;93417.69;1807812;79;21069;-62
2021/03/15 05:19:26;;;;;;;30.45;25.37;;;;;;;4.95;72.42;93416.86;1807816;79;21230;-62
2021/03/15 05:21:54;;;;;;;32.95;24.00;;;;;;;4.91;72.92;93416.20;1807723;79;21054;-62
2021/03/15 05:24:22;;;;;;;30.68;24.18;;;;;;;4.96;72.87;93415.03;1807801;79;21141;-61
2021/03/15 05:26:51;;;;;;;31.90;24.92;;;;;;;4.90;72.58;93416.82;1807784;79;21141;-62
2021/03/15 05:29:19;;;;;;;38.10;29.80;;;;;;;4.72;72.84;93406.37;1807877;79;21523;-62
2021/03/15 05:31:47;;;;;;;33.00;28.07;;;;;;;4.67;73.59;93413.16;1807784;79;21381;-63
2021/03/15 05:34:15;;;;;;;32.93;26.57;;;;;;;4.79;73.50;93410.23;1807734;79;21081;-62
2021/03/15 05:36:44;;;;;;;33.98;25.00;;;;;;;4.90;73.52;93414.09;1807732;78;21065;-61
2021/03/15 05:39:11;;;;;;;32.90;25.40;;;;;;;5.05;73.12;93410.25;1807876;79;21505;-62
2021/03/15 05:42:00;;;;;;;29.75;23.67;;;;;;;5.13;72.67;93410.92;1807790;79;21110;-62
2021/03/15 05:44:56;;;;;;;74.07;43.13;;;;;;;5.12;72.40;93415.47;1807767;79;21577;-61
2021/03/15 05:48:13;;;;;;;74.32;44.10;;;;;;;5.10;72.54;93408.31;1807700;79;21160;-62
2021/03/15 05:51:14;;;;;;;77.85;43.48;;;;;;;5.09;72.41;93410.30;1807740;79;21144;-61
2021/03/15 05:54:00;;;;;;;74.07;38.10;;;;;;;5.06;72.41;93409.83;1807790;79;21073;-61
2021/03/15 05:57:10;;;;;;;57.53;34.88;;;;;;;5.03;72.38;93416.16;1807922;79;21545;-62
2021/03/15 06:00:11;;;;;;;65.97;39.40;;;;;;;4.90;72.36;93419.55;1807067;79;22658;-63
2021/03/15 06:03:06;;;;;;;47.03;32.80;;;;;;;4.70;72.74;93420.45;1807701;79;21175;-62
2021/03/15 06:05:36;;;;;;;64.17;40.65;;;;;;;4.58;73.18;93425.94;1807746;79;21046;-61
2021/03/15 06:08:21;;;;;;;108.78;57.58;;;;;;;4.57;73.93;93423.06;1778769;78;21037;-62
2021/03/15 06:11:12;;;;;;;87.37;53.33;;;;;;;4.75;73.88;93421.23;1807824;78;21054;-62
2021/03/15 06:13:40;;;;;;;100.00;54.98;;;;;;;4.91;73.27;93424.38;1807752;79;21369;-61
2021/03/15 06:16:10;;;;;;;83.10;49.10;;;;;;;4.95;73.07;93418.97;1805644;79;21173;-60
2021/03/15 06:18:39;;;;;;;83.60;52.45;;;;;;;4.96;72.86;93415.03;1797682;79;21156;-62
2021/03/15 06:21:11;;;;;;;80.30;50.28;;;;;;;4.94;72.76;93418.81;1814856;78;21072;-63
2021/03/15 06:23:38;;;;;;;96.53;60.33;;;;;;;4.90;72.96;93419.55;1810531;78;21159;-61
2021/03/15 06:26:07;;;;;;;76.42;49.58;;;;;;;4.99;72.94;93426.41;1840820;77;21353;-62
2021/03/15 06:28:35;;;;;;;69.42;47.93;;;;;;;5.04;72.75;93424.50;1823748;78;21093;-62
2021/03/15 06:31:03;;;;;;;70.08;46.30;;;;;;;5.04;72.71;93422.36;1798284;78;21053;-62
2021/03/15 06:33:31;;;;;;;66.28;44.25;;;;;;;5.00;72.56;93422.48;1816036;78;21162;-61
2021/03/15 06:36:05;;;;;;;82.08;54.20;;;;;;;4.96;72.51;93427.30;1840257;78;21150;-61
2021/03/15 06:38:33;;;;;;;63.45;43.45;;;;;;;4.93;72.69;93426.08;1840616;77;21129;-59
2021/03/15 06:41:03;;;;;;;78.05;53.73;;;;;;;4.93;72.52;93425.47;1804238;78;21116;-58
2021/03/15 06:43:32;;;;;;;70.25;47.03;;;;;;;4.88;72.60;93423.31;1802213;78;21170;-58
2021/03/15 06:46:00;;;;;;;86.42;57.45;;;;;;;4.85;72.64;93420.12;1797551;79;21168;-60
2021/03/15 06:48:28;;;;;;;92.30;61.28;;;;;;;4.77;72.83;93415.36;1737440;81;21145;-66
2021/03/15 06:50:58;;;;;;;87.50;57.48;;;;;;;4.78;73.27;93412.18;1732620;82;21362;-62
2021/03/15 06:53:41;;;;;;;84.32;56.33;;;;;;;4.90;73.11;93410.01;1751600;80;21145;-64
2021/03/15 06:56:16;;;;;;;100.90;58.80;;;;;;;4.93;72.88;93410.48;1736588;81;21261;-59
2021/03/15 06:58:57;;;;;;;243.15;118.75;;;;;;;4.95;73.02;93412.16;1728065;81;21067;-59
2021/03/15 07:01:27;;;;;;;116.67;67.70;;;;;;;4.98;72.88;93416.72;1736501;80;21682;-64
2021/03/15 07:04:11;;;;;;;94.87;55.63;;;;;;;4.92;73.02;93411.69;1739945;80;21432;-60
2021/03/15 07:06:41;;;;;;;96.45;56.70;;;;;;;4.99;73.09;93412.78;1751345;81;21173;-61
2021/03/15 07:09:14;;;;;;;108.45;61.45;;;;;;;5.06;72.96;93408.46;1724542;81;21404;-61
2021/03/15 07:11:42;;;;;;;106.43;58.98;;;;;;;5.12;72.75;93406.67;1710826;83;21255;-63
2021/03/15 07:14:24;;;;;;;107.47;59.98;;;;;;;5.15;72.65;93407.76;1719088;82;21157;-61
2021/03/15 07:16:58;;;;;;;157.93;88.85;;;;;;;5.09;72.85;93403.48;1678537;83;21638;-60
2021/03/15 07:19:27;;;;;;;145.47;82.55;;;;;;;5.04;72.86;93399.20;1708879;82;21612;-62
2021/03/15 07:21:55;;;;;;;104.12;66.07;;;;;;;5.04;73.07;93401.33;1705475;82;21127;-63
2021/03/15 07:24:29;;;;;;;127.47;73.28;;;;;;;5.12;73.00;93400.48;1710347;82;21075;-60
2021/03/15 07:26:58;;;;;;;126.12;79.97;;;;;;;5.20;72.84;93399.78;1702360;82;21158;-62
2021/03/15 07:29:28;;;;;;;144.90;90.05;;;;;;;5.24;72.76;93401.77;1724850;81;21218;-62
2021/03/15 07:32:00;;;;;;;138.95;84.77;;;;;;;5.27;72.89;93390.70;1697838;83;21213;-64
2021/03/15 07:34:28;;;;;;;108.85;69.92;;;;;;;5.27;72.66;93389.97;1716379;82;21190;-61
2021/03/15 07:36:59;;;;;;;114.22;72.95;;;;;;;5.20;72.47;93388.09;1721760;82;21209;-59
2021/03/15 07:39:29;;;;;;;97.08;68.00;;;;;;;5.09;72.75;93391.22;1714390;82;21487;-59
2021/03/15 07:41:58;;;;;;;91.82;57.90;;;;;;;5.08;72.97;93392.42;1713225;82;22125;-61
2021/03/15 07:44:35;;;;;;;92.62;65.78;;;;;;;5.06;73.15;93389.38;1710969;82;21254;-63
2021/03/15 07:47:08;;;;;;;84.72;60.55;;;;;;;5.08;73.25;93388.34;1691448;82;21251;-63
2021/03/15 07:49:39;;;;;;;103.85;68.80;;;;;;;5.08;73.26;93391.65;1705994;82;21535;-61
2021/03/15 07:52:12;;;;;;;88.90;56.83;;;;;;;5.05;73.36;93389.23;1720236;82;21233;-63
2021/03/15 07:54:42;;;;;;;74.00;48.85;;;;;;;5.03;73.59;93387.55;1714008;82;21203;-62
2021/03/15 07:57:21;;;;;;;96.50;59.45;;;;;;;4.97;73.66;93383.11;1708315;83;21203;-61
2021/03/15 07:59:51;;;;;;;89.00;56.08;;;;;;;4.93;73.75;93385.96;1706104;82;21143;-62
2021/03/15 08:02:28;;;;;;;83.17;55.80;;;;;;;4.98;73.80;93379.93;1708603;82;21206;-64
2021/03/15 08:04:59;;;;;;;75.67;49.58;;;;;;;5.06;74.38;93373.03;1702772;82;21476;-62
2021/03/15 08:07:30;;;;;;;51.77;34.73;;;;;;;5.28;74.21;93380.58;1709740;82;21384;-63
2021/03/15 08:10:00;;;;;;;41.53;30.15;;;;;;;5.36;73.86;93377.73;1743348;81;21511;-63
2021/03/15 08:12:37;;;;;;;49.42;35.80;;;;;;;5.37;73.35;93381.38;1739641;81;21275;-61
2021/03/15 08:15:10;;;;;;;50.98;38.65;;;;;;;5.36;73.01;93378.50;1739009;80;21209;-64
2021/03/15 08:17:44;;;;;;;;;;;;;;;5.41;73.15;93385.35;1746427;81;21165;-64
2021/03/15 08:20:14;;;;;;;36.23;27.90;;;;;;;5.54;72.90;93376.45;1749406;81;22176;-63
2021/03/15 08:22:44;;;;;;;42.13;32.20;;;;;;;5.55;72.60;93374.66;1743716;81;21174;-63
2021/03/15 08:25:13;;;;;;;44.63;33.15;;;;;;;5.58;72.66;93373.02;1737416;81;22216;-63
2021/03/15 08:27:42;;;;;;;44.83;33.85;;;;;;;5.60;72.51;93362.41;1724358;81;21622;-65
2021/03/15 08:30:24;;;;;;;37.95;27.25;;;;;;;5.68;72.65;93361.69;1731718;81;21226;-67
2021/03/15 08:32:53;;;;;;;38.25;26.75;;;;;;;5.91;72.37;93367.23;1739009;81;21202;-67
2021/03/15 08:35:22;;;;;;;33.23;25.15;;;;;;;6.10;71.52;93367.42;1706269;81;21901;-61
2021/03/15 08:37:59;;;;;;;37.80;27.27;;;;;;;6.17;71.38;93358.97;1736484;81;21210;-66
2021/03/15 08:40:51;;;;;;;32.90;23.45;;;;;;;6.21;71.02;93359.58;1737601;81;21205;-64
2021/03/15 08:43:25;;;;;;;39.25;26.62;;;;;;;6.31;70.76;93359.75;1739524;81;21133;-62
2021/03/15 08:46:04;;;;;;;44.48;32.73;;;;;;;6.39;70.60;93359.01;1747508;81;21304;-64
2021/03/15 08:48:41;;;;;;;48.33;30.97;;;;;;;6.53;70.67;93360.38;1741345;81;21304;-63
2021/03/15 08:51:15;;;;;;;61.10;40.58;;;;;;;6.63;69.92;93356.42;1732785;82;21242;-63
2021/03/15 08:53:49;;;;;;;48.65;33.92;;;;;;;6.68;69.75;93354.47;1735727;81;21201;-66
2021/03/15 08:56:23;;;;;;;48.02;36.55;;;;;;;6.75;70.10;93352.78;1738779;81;21198;-61
2021/03/15 08:58:54;;;;;;;42.05;31.65;;;;;;;6.76;70.21;93355.66;1736415;81;21395;-63
2021/03/15 09:01:28;;;;;;;55.50;35.80;;;;;;;6.80;70.02;93352.17;1731740;81;21206;-60
2021/03/15 09:04:04;;;;;;;44.58;29.87;;;;;;;6.80;69.83;93352.17;1739659;81;21252;-63
2021/03/15 09:06:45;;;;;;;32.60;25.23;;;;;;;6.86;69.96;93354.46;1698580;81;21670;-59
2021/03/15 09:09:27;;;;;;;26.37;19.10;;;;;;;6.98;69.80;93345.31;1741291;80;21212;-63
2021/03/15 09:12:01;;;;;;;26.33;19.42;;;;;;;6.99;68.65;93342.14;1762160;79;21905;-63
2021/03/15 09:14:34;;;;;;;25.25;18.48;;;;;;;6.93;68.89;93339.11;1759772;79;21180;-62
2021/03/15 09:17:21;;;;;;;18.17;15.20;;;;;;;7.03;68.80;93341.99;1757078;79;21145;-63
2021/03/15 09:19:51;;;;;;;18.05;14.75;;;;;;;7.11;68.20;93345.29;1729953;81;21245;-63
2021/03/15 09:22:27;;;;;;;12.85;10.82;;;;;;;7.07;67.62;93346.69;1763949;79;21172;-61
2021/03/15 09:24:59;;;;;;;12.07;10.70;;;;;;;7.04;67.47;93340.77;1767235;79;21349;-62
2021/03/15 09:27:40;;;;;;;13.93;11.38;;;;;;;6.93;67.11;93337.14;1769509;79;21188;-61
2021/03/15 09:30:29;;;;;;;16.05;12.28;;;;;;;6.98;66.93;93339.26;1775104;79;21178;-60
2021/03/15 09:32:59;;;;;;;19.50;13.75;;;;;;;7.01;66.47;93339.70;1765036;79;21166;-64
2021/03/15 09:35:39;;;;;;;16.45;12.55;;;;;;;6.97;67.15;93340.47;1759663;81;21166;-62
2021/03/15 09:38:10;;;;;;;20.05;15.80;;;;;;;7.05;67.20;93340.30;1762196;80;21209;-63
2021/03/15 09:40:49;;;;;;;15.80;14.03;;;;;;;7.26;67.10;93334.64;1765426;79;21252;-63
2021/03/15 09:43:26;;;;;;;14.63;11.60;;;;;;;7.43;67.23;93337.77;1766199;79;21564;-61
2021/03/15 09:46:04;;;;;;;9.63;8.10;;;;;;;7.60;66.87;93341.08;1763019;79;21332;-66
2021/03/15 09:48:35;;;;;;;10.93;8.78;;;;;;;7.71;66.77;93328.26;1760039;79;21256;-63
2021/03/15 09:51:05;;;;;;;9.60;8.23;;;;;;;7.74;66.39;93330.80;1762699;79;22041;-63
2021/03/15 09:53:44;;;;;;;8.30;7.35;;;;;;;7.87;65.60;93329.25;1868344;75;22746;-63
2021/03/15 09:56:14;;;;;;;7.60;6.80;;;;;;;7.96;65.05;93331.34;1755554;80;21166;-64
2021/03/15 09:58:45;;;;;;;10.50;8.60;;;;;;;7.97;63.90;93330.11;1774874;80;21358;-60
2021/03/15 10:01:18;;;;;;;7.53;6.72;;;;;;;7.89;63.64;93332.28;1762206;79;21575;-63
2021/03/15 10:04:05;;;;;;;12.78;10.00;;;;;;;7.74;63.89;93326.70;1769967;80;21122;-63
2021/03/15 10:06:52;;;;;;;9.45;8.13;;;;;;;7.73;64.34;93322.45;1762955;79;21211;-63
2021/03/15 10:09:30;;;;;;;16.42;10.30;;;;;;;7.68;64.50;93321.72;1770099;79;21146;-65
2021/03/15 10:12:20;;;;;;;16.48;12.90;;;;;;;7.67;64.53;93320.83;1752682;79;21379;-61
2021/03/15 10:15:07;;;;;;;10.18;7.97;;;;;;;7.71;64.83;93324.16;1727526;82;21149;-68
2021/03/15 10:17:44;;;;;;;6.97;6.25;;;;;;;7.92;64.55;93329.36;1741072;80;21454;-62
2021/03/15 10:20:39;;;;;;;5.58;5.08;;;;;;;8.08;63.80;93310.42;1885553;74;22342;-58
2021/03/15 10:23:31;;;;;;;7.22;6.53;;;;;;;8.08;64.11;93312.53;1850394;77;21188;-62
2021/03/15 10:26:03;;;;;;;9.98;8.63;;;;;;;8.13;64.41;93319.36;1842315;75;21213;-62
2021/03/15 10:28:38;;;;;;;12.88;9.80;;;;;;;8.11;64.73;93312.23;1812151;79;21113;-61
2021/03/15 10:31:12;;;;;;;11.18;7.87;;;;;;;8.17;64.72;93309.76;1790033;79;21298;-62
2021/03/15 10:33:48;;;;;;;11.50;9.80;;;;;;;8.20;65.11;93315.70;1812453;77;21136;-62
2021/03/15 10:36:23;;;;;;;15.28;12.47;;;;;;;8.24;64.66;93313.53;1815718;77;21197;-61
2021/03/15 10:39:14;;;;;;;17.40;13.03;;;;;;;8.38;65.29;93305.22;1846159;75;22484;-61
2021/03/15 10:41:43;;;;;;;18.32;14.70;;;;;;;8.33;65.26;93302.53;1759908;80;21170;-65
2021/03/15 10:44:13;;;;;;;10.32;8.78;;;;;;;8.27;65.06;93298.90;1745847;80;21442;-60
2021/03/15 10:46:50;;;;;;;13.18;10.25;;;;;;;8.19;65.02;93305.97;1775178;79;21225;-64
2021/03/15 10:49:22;;;;;;;11.65;9.20;;;;;;;8.20;64.51;93304.74;1760534;80;21630;-63
2021/03/15 10:51:52;;;;;;;10.55;8.70;;;;;;;8.18;64.93;93305.05;1716434;82;21197;-63
2021/03/15 10:54:37;;;;;;;11.78;9.30;;;;;;;8.17;65.07;93301.54;1744463;80;21158;-64
2021/03/15 10:57:16;;;;;;;12.23;9.30;;;;;;;8.13;65.08;93299.59;1671343;82;23138;-64
2021/03/15 10:59:47;;;;;;;13.50;9.78;;;;;;;8.04;65.22;93299.63;1733374;82;21182;-63
2021/03/15 11:02:25;;;;;;;13.43;7.28;;;;;;;8.00;65.26;93299.06;1747135;82;21169;-61
2021/03/15 11:04:59;;;;;;;5.42;4.92;;;;;;;8.05;65.58;93295.67;1731253;80;21193;-61
2021/03/15 11:07:35;;;;;;;11.22;8.78;;;;;;;7.99;65.33;93294.80;1748425;82;22096;-63
2021/03/15 11:10:25;;;;;;;11.03;9.38;;;;;;;7.77;65.40;93281.23;1749052;81;21146;-62
2021/03/15 11:13:14;;;;;;;14.47;11.35;;;;;;;7.61;66.25;93282.98;1846129;76;22016;-66
2021/03/15 11:15:43;;;;;;;11.15;8.93;;;;;;;7.39;66.90;93278.37;1781378;79;21142;-64
2021/03/15 11:18:21;;;;;;;8.75;6.97;;;;;;;7.30;67.23;93273.69;1780804;79;21347;-65
2021/03/15 11:21:00;;;;;;;7.22;6.47;;;;;;;7.20;67.23;93274.96;1781796;80;21103;-64
2021/03/15 11:23:37;;;;;;;10.00;9.00;;;;;;;7.21;67.40;93261.44;1780331;79;21124;-63
2021/03/15 11:26:15;;;;;;;10.90;9.70;;;;;;;7.27;66.90;93260.95;1780667;79;21483;-62
2021/03/15 11:28:56;;;;;;;17.12;13.83;;;;;;;7.30;67.12;93257.28;1810322;78;21538;-63
2021/03/15 11:31:30;;;;;;;19.87;16.02;;;;;;;7.40;67.59;93255.27;1840198;78;22075;-61
2021/03/15 11:34:02;;;;;;;18.87;14.75;;;;;;;7.47;67.20;93254.32;1814844;78;21625;-62
2021/03/15 11:36:31;;;;;;;12.95;9.40;;;;;;;7.45;66.97;93248.56;1746547;82;21573;-64
2021/03/15 11:39:05;;;;;;;17.15;12.20;;;;;;;7.44;66.91;93247.05;1756012;80;21205;-63
2021/03/15 11:41:38;;;;;;;13.32;9.98;;;;;;;7.44;66.74;93242.95;1772027;80;21653;-65
2021/03/15 11:44:06;;;;;;;11.22;8.85;;;;;;;7.47;66.79;93246.12;1786383;80;22173;-63
2021/03/15 11:46:36;;;;;;;7.65;6.70;;;;;;;7.58;66.34;93250.48;1785716;80;21062;-62
2021/03/15 11:49:05;;;;;;;10.08;8.05;;;;;;;7.56;66.54;93251.53;1741160;81;21602;-65
2021/03/15 11:51:38;;;;;;;11.80;9.35;;;;;;;7.50;66.57;93246.55;1751441;81;21123;-62
2021/03/15 11:54:18;;;;;;;10.75;9.45;;;;;;;7.55;66.37;93234.22;1862837;75;22596;-60
2021/03/15 11:56:48;;;;;;;12.03;10.00;;;;;;;7.43;66.64;93234.59;1810368;78;21152;-63